CXA096 ZSPD-ZGGG
Flight info
| Callsign | CXA096 |
|---|---|
| Flight time | N/A |
| Altitude | 40100 |
| Route | NXD91D/35R NXD W131 AKDIM A470 DUBGO W134 ELNEX A599 PLT W19 OLPAB OLPAB3P |
| Aircraft | MD11/H-SDE1E2E3FGHIJ2J3J4J5M1RWXY/LB1D1 |
Departure
| Time | N/A |
|---|---|
| Airport | Shanghai Pudong International Airport (ZSPD) |
Arrival
| Time | 2026-04-30 11:51 |
|---|---|
| Airport | Guangzhou Baiyun International Airport (ZGGG) |
| Time | Latitude | Longitude | Altitude | Speed | Heading |
|---|---|---|---|---|---|
| 2026-04-30 11:51 | 23.39118 | 113.31159 | 56 ft | 27 kts | 15° |
| 2026-04-30 11:51 | 23.39300 | 113.31207 | 55 ft | 27 kts | 12° |
| 2026-04-30 11:52 | 23.39481 | 113.31254 | 56 ft | 26 kts | 13° |
| 2026-04-30 11:52 | 23.39656 | 113.31301 | 55 ft | 26 kts | 14° |
| 2026-04-30 11:52 | 23.39827 | 113.31346 | 58 ft | 25 kts | 13° |
| 2026-04-30 11:52 | 23.39996 | 113.31393 | 57 ft | 25 kts | 14° |
| 2026-04-30 11:53 | 23.40165 | 113.31436 | 55 ft | 25 kts | 13° |
| 2026-04-30 11:53 | 23.40333 | 113.31482 | 58 ft | 25 kts | 14° |
| 2026-04-30 11:53 | 23.40500 | 113.31529 | 55 ft | 25 kts | 14° |
| 2026-04-30 11:53 | 23.40668 | 113.31575 | 53 ft | 25 kts | 14° |
| 2026-04-30 11:54 | 23.40801 | 113.31606 | 57 ft | 18 kts | 2° |
| 2026-04-30 11:54 | 23.40845 | 113.31590 | 54 ft | 0 kts | 317° |
| 2026-04-30 11:54 | 23.40851 | 113.31578 | 54 ft | 7 kts | 299° |
| 2026-04-30 11:54 | 23.40864 | 113.31529 | 54 ft | 7 kts | 283° |
| 2026-04-30 11:55 | 23.40876 | 113.31475 | 56 ft | 8 kts | 282° |
| 2026-04-30 11:55 | 23.40888 | 113.31412 | 60 ft | 12 kts | 282° |
| 2026-04-30 11:55 | 23.40911 | 113.31315 | 55 ft | 13 kts | 285° |
| 2026-04-30 11:55 | 23.40939 | 113.31198 | 59 ft | 13 kts | 280° |
| 2026-04-30 11:56 | 23.40917 | 113.31142 | 58 ft | 8 kts | 209° |
| 2026-04-30 11:56 | 23.40822 | 113.31105 | 56 ft | 16 kts | 194° |
| 2026-04-30 11:56 | 23.40713 | 113.31076 | 55 ft | 16 kts | 193° |
| 2026-04-30 11:56 | 23.40600 | 113.31048 | 59 ft | 17 kts | 192° |
| 2026-04-30 11:57 | 23.40490 | 113.31017 | 58 ft | 16 kts | 195° |
| 2026-04-30 11:57 | 23.40381 | 113.30987 | 57 ft | 16 kts | 193° |
| 2026-04-30 11:57 | 23.40278 | 113.30960 | 57 ft | 11 kts | 193° |
| 2026-04-30 11:57 | 23.40213 | 113.30930 | 58 ft | 8 kts | 226° |
| 2026-04-30 11:58 | 23.40206 | 113.30900 | 55 ft | 6 kts | 261° |
| 2026-04-30 11:58 | 23.40188 | 113.30856 | 54 ft | 4 kts | 222° |
| 2026-04-30 11:58 | 23.40154 | 113.30828 | 56 ft | 9 kts | 221° |
| 2026-04-30 11:58 | 23.40141 | 113.30805 | 55 ft | 1 kts | 254° |
| 2026-04-30 11:59 | 23.40140 | 113.30791 | 53 ft | 2 kts | 265° |
| 2026-04-30 11:59 | 23.40141 | 113.30783 | 53 ft | 1 kts | 274° |
| 2026-04-30 11:59 | 23.40143 | 113.30755 | 55 ft | 7 kts | 276° |
| 2026-04-30 11:59 | 23.40146 | 113.30722 | 54 ft | 5 kts | 276° |
| 2026-04-30 12:00 | 23.40147 | 113.30714 | 62 ft | 0 kts | 276° |